sensor_id;sensor_type;location;lat;lon;timestamp;pressure;altitude;pressure_sealevel;temperature;humidity
25156;BME280;21913;52.456;13.634;2023-05-03T00:03:30;101519.91;;;13.67;67.19
25156;BME280;21913;52.456;13.634;2023-05-03T00:08:31;101520.78;;;13.66;67.11
25156;BME280;21913;52.456;13.634;2023-05-03T00:13:33;101516.44;;;13.66;67.26
25156;BME280;21913;52.456;13.634;2023-05-03T00:18:35;101515.56;;;13.66;67.27
25156;BME280;21913;52.456;13.634;2023-05-03T00:23:36;101519.91;;;13.67;67.16
25156;BME280;21913;52.456;13.634;2023-05-03T00:28:38;101520.78;;;13.66;67.19
25156;BME280;21913;52.456;13.634;2023-05-03T00:33:39;101515.56;;;13.66;67.07
25156;BME280;21913;52.456;13.634;2023-05-03T00:38:41;101507.75;;;13.66;67.29
25156;BME280;21913;52.456;13.634;2023-05-03T00:43:43;101510.31;;;13.64;67.21
25156;BME280;21913;52.456;13.634;2023-05-03T00:48:47;101499.09;;;13.65;67.30
25156;BME280;21913;52.456;13.634;2023-05-03T00:53:50;101512.09;;;13.65;67.22
25156;BME280;21913;52.456;13.634;2023-05-03T00:58:51;101514.66;;;13.64;67.16
25156;BME280;21913;52.456;13.634;2023-05-03T01:03:53;101516.38;;;13.63;67.11
25156;BME280;21913;52.456;13.634;2023-05-03T01:09:01;101516.44;;;13.65;67.25
25156;BME280;21913;52.456;13.634;2023-05-03T01:14:27;101520.72;;;13.64;67.26
25156;BME280;21913;52.456;13.634;2023-05-03T01:19:35;101523.31;;;13.64;67.36
25156;BME280;21913;52.456;13.634;2023-05-03T01:24:37;101520.72;;;13.63;67.28
25156;BME280;21913;52.456;13.634;2023-05-03T01:29:41;101520.72;;;13.63;67.34
25156;BME280;21913;52.456;13.634;2023-05-03T01:35:07;101517.25;;;13.62;67.20
25156;BME280;21913;52.456;13.634;2023-05-03T01:40:13;101522.44;;;13.62;67.23
25156;BME280;21913;52.456;13.634;2023-05-03T01:45:16;101517.25;;;13.62;67.39
25156;BME280;21913;52.456;13.634;2023-05-03T01:50:18;101528.53;;;13.63;67.30
25156;BME280;21913;52.456;13.634;2023-05-03T01:55:21;101523.31;;;13.61;67.33
25156;BME280;21913;52.456;13.634;2023-05-03T02:00:23;101535.47;;;13.62;67.32
25156;BME280;21913;52.456;13.634;2023-05-03T02:05:24;101540.66;;;13.62;67.14
25156;BME280;21913;52.456;13.634;2023-05-03T02:10:27;101541.53;;;13.61;67.45
25156;BME280;21913;52.456;13.634;2023-05-03T02:15:29;101551.91;;;13.61;67.39
25156;BME280;21913;52.456;13.634;2023-05-03T02:20:30;101553.66;;;13.61;67.25
25156;BME280;21913;52.456;13.634;2023-05-03T02:25:32;101544.97;;;13.60;67.40
25156;BME280;21913;52.456;13.634;2023-05-03T02:30:34;101544.97;;;13.60;67.29
25156;BME280;21913;52.456;13.634;2023-05-03T02:35:35;101547.59;;;13.60;67.25
25156;BME280;21913;52.456;13.634;2023-05-03T02:40:37;101556.25;;;13.61;67.35
25156;BME280;21913;52.456;13.634;2023-05-03T02:45:39;101564.03;;;13.59;67.26
25156;BME280;21913;52.456;13.634;2023-05-03T02:50:42;101566.66;;;13.59;67.33
25156;BME280;21913;52.456;13.634;2023-05-03T02:55:43;101563.13;;;13.59;67.25
25156;BME280;21913;52.456;13.634;2023-05-03T03:00:45;101557.13;;;13.60;67.33
25156;BME280;21913;52.456;13.634;2023-05-03T03:05:49;101563.13;;;13.59;67.33
25156;BME280;21913;52.456;13.634;2023-05-03T03:10:50;101563.13;;;13.59;67.28
25156;BME280;21913;52.456;13.634;2023-05-03T03:15:52;101559.66;;;13.58;67.23
25156;BME280;21913;52.456;13.634;2023-05-03T03:20:54;101550.13;;;13.59;67.44
25156;BME280;21913;52.456;13.634;2023-05-03T03:25:56;101556.19;;;13.58;67.47
25156;BME280;21913;52.456;13.634;2023-05-03T03:30:59;101557.94;;;13.57;67.54
25156;BME280;21913;52.456;13.634;2023-05-03T03:36:00;101544.94;;;13.57;67.46
25156;BME280;21913;52.456;13.634;2023-05-03T03:41:08;101552.72;;;13.57;67.22
25156;BME280;21913;52.456;13.634;2023-05-03T03:46:11;101556.19;;;13.56;67.29
25156;BME280;21913;52.456;13.634;2023-05-03T03:51:13;101550.13;;;13.57;67.29
25156;BME280;21913;52.456;13.634;2023-05-03T03:56:20;101551.84;;;13.57;67.40
25156;BME280;21913;52.456;13.634;2023-05-03T04:01:24;101540.59;;;13.55;67.39
25156;BME280;21913;52.456;13.634;2023-05-03T04:06:27;101536.25;;;13.55;67.33
25156;BME280;21913;52.456;13.634;2023-05-03T04:11:29;101543.19;;;13.55;67.45
25156;BME280;21913;52.456;13.634;2023-05-03T04:16:34;101544.06;;;13.55;67.38
25156;BME280;21913;52.456;13.634;2023-05-03T04:21:37;101544.06;;;13.55;67.48
25156;BME280;21913;52.456;13.634;2023-05-03T04:26:39;101549.25;;;13.55;67.41
25156;BME280;21913;52.456;13.634;2023-05-03T04:31:47;101549.25;;;13.55;67.42
25156;BME280;21913;52.456;13.634;2023-05-03T04:36:50;101538.84;;;13.54;67.42
25156;BME280;21913;52.456;13.634;2023-05-03T04:41:52;101535.34;;;13.53;67.43
25156;BME280;21913;52.456;13.634;2023-05-03T04:46:53;101534.50;;;13.54;67.50
25156;BME280;21913;52.456;13.634;2023-05-03T04:51:55;101529.28;;;13.53;67.36
25156;BME280;21913;52.456;13.634;2023-05-03T04:56:58;101527.53;;;13.53;67.31
25156;BME280;21913;52.456;13.634;2023-05-03T05:02:01;101530.13;;;13.53;67.38
25156;BME280;21913;52.456;13.634;2023-05-03T05:07:03;101527.53;;;13.53;67.43
25156;BME280;21913;52.456;13.634;2023-05-03T05:12:06;101539.66;;;13.53;67.45
25156;BME280;21913;52.456;13.634;2023-05-03T05:17:12;101550.06;;;13.53;67.36
25156;BME280;21913;52.456;13.634;2023-05-03T05:22:15;101559.59;;;13.52;67.48
25156;BME280;21913;52.456;13.634;2023-05-03T05:27:22;101568.25;;;13.51;67.30
25156;BME280;21913;52.456;13.634;2023-05-03T05:32:26;101572.59;;;13.52;67.37
25156;BME280;21913;52.456;13.634;2023-05-03T05:37:28;101576.94;;;13.52;67.42
25156;BME280;21913;52.456;13.634;2023-05-03T05:42:33;101582.13;;;13.52;67.37
25156;BME280;21913;52.456;13.634;2023-05-03T05:47:36;101583.88;;;13.51;67.55
25156;BME280;21913;52.456;13.634;2023-05-03T05:52:38;101583.00;;;13.51;67.55
25156;BME280;21913;52.456;13.634;2023-05-03T05:57:40;101597.72;;;13.50;67.34
25156;BME280;21913;52.456;13.634;2023-05-03T06:02:44;101597.75;;;13.52;67.38
25156;BME280;21913;52.456;13.634;2023-05-03T06:07:50;101607.28;;;13.51;67.36
25156;BME280;21913;52.456;13.634;2023-05-03T06:12:51;101609.84;;;13.50;67.42
25156;BME280;21913;52.456;13.634;2023-05-03T06:17:58;101614.19;;;13.51;67.39
25156;BME280;21913;52.456;13.634;2023-05-03T06:22:59;101621.13;;;13.50;67.54
25156;BME280;21913;52.456;13.634;2023-05-03T06:28:02;101623.72;;;13.49;67.46
25156;BME280;21913;52.456;13.634;2023-05-03T06:33:11;101623.72;;;13.50;67.47
25156;BME280;21913;52.456;13.634;2023-05-03T06:38:13;101624.59;;;13.51;67.44
25156;BME280;21913;52.456;13.634;2023-05-03T06:43:15;101616.75;;;13.48;67.50
25156;BME280;21913;52.456;13.634;2023-05-03T06:48:25;101629.75;;;13.48;67.46
25156;BME280;21913;52.456;13.634;2023-05-03T06:53:27;101628.00;;;13.48;67.50
25156;BME280;21913;52.456;13.634;2023-05-03T06:58:28;101625.41;;;13.48;67.53
25156;BME280;21913;52.456;13.634;2023-05-03T07:03:30;101623.66;;;13.47;67.58
25156;BME280;21913;52.456;13.634;2023-05-03T07:08:31;101633.22;;;13.48;67.42
25156;BME280;21913;52.456;13.634;2023-05-03T07:13:33;101628.91;;;13.49;67.48
25156;BME280;21913;52.456;13.634;2023-05-03T07:18:34;101618.50;;;13.49;67.28
25156;BME280;21913;52.456;13.634;2023-05-03T07:23:36;101615.00;;;13.48;67.45
25156;BME280;21913;52.456;13.634;2023-05-03T07:28:37;101610.72;;;13.49;67.48
25156;BME280;21913;52.456;13.634;2023-05-03T07:33:39;101606.41;;;13.52;67.21
25156;BME280;21913;52.456;13.634;2023-05-03T07:38:40;101616.88;;;13.55;67.32
25156;BME280;21913;52.456;13.634;2023-05-03T07:43:42;101612.56;;;13.59;67.18
25156;BME280;21913;52.456;13.634;2023-05-03T07:48:44;101607.41;;;13.60;67.08
25156;BME280;21913;52.456;13.634;2023-05-03T07:53:45;101603.94;;;13.63;67.09
25156;BME280;21913;52.456;13.634;2023-05-03T07:58:46;101602.25;;;13.65;66.90
25156;BME280;21913;52.456;13.634;2023-05-03T08:03:49;101596.19;;;13.66;66.86
25156;BME280;21913;52.456;13.634;2023-05-03T08:08:51;101582.31;;;13.65;66.87
25156;BME280;21913;52.456;13.634;2023-05-03T08:13:52;101586.66;;;13.68;66.85
25156;BME280;21913;52.456;13.634;2023-05-03T08:18:54;101588.41;;;13.67;66.77
25156;BME280;21913;52.456;13.634;2023-05-03T08:23:55;101586.66;;;13.66;66.77
25156;BME280;21913;52.456;13.634;2023-05-03T08:28:57;101584.94;;;13.67;66.70
25156;BME280;21913;52.456;13.634;2023-05-03T08:33:58;101591.84;;;13.66;67.12
25156;BME280;21913;52.456;13.634;2023-05-03T08:39:01;101577.13;;;13.67;66.84
25156;BME280;21913;52.456;13.634;2023-05-03T08:44:02;101580.59;;;13.67;66.87
25156;BME280;21913;52.456;13.634;2023-05-03T08:49:05;101575.41;;;13.67;67.11
25156;BME280;21913;52.456;13.634;2023-05-03T08:54:07;101577.13;;;13.68;66.88
25156;BME280;21913;52.456;13.634;2023-05-03T08:59:12;101573.66;;;13.68;66.90
25156;BME280;21913;52.456;13.634;2023-05-03T09:04:14;101582.34;;;13.68;66.95
25156;BME280;21913;52.456;13.634;2023-05-03T09:09:30;101579.72;;;13.68;66.79
25156;BME280;21913;52.456;13.634;2023-05-03T09:14:41;101588.41;;;13.69;66.92
25156;BME280;21913;52.456;13.634;2023-05-03T09:20:01;101584.94;;;13.67;66.60
25156;BME280;21913;52.456;13.634;2023-05-03T09:25:02;101590.00;;;13.55;62.73
25156;BME280;21913;52.456;13.634;2023-05-03T09:30:17;101590.72;;;13.43;57.52
25156;BME280;21913;52.456;13.634;2023-05-03T09:35:18;101589.81;;;13.42;55.64
25156;BME280;21913;52.456;13.634;2023-05-03T09:40:20;101569.94;;;13.48;56.83
25156;BME280;21913;52.456;13.634;2023-05-03T09:45:24;101570.00;;;13.52;57.64
25156;BME280;21913;52.456;13.634;2023-05-03T09:50:26;101563.13;;;13.54;58.40
25156;BME280;21913;52.456;13.634;2023-05-03T09:55:35;101551.00;;;13.56;59.02
25156;BME280;21913;52.456;13.634;2023-05-03T10:00:38;101552.72;;;13.57;59.82
25156;BME280;21913;52.456;13.634;2023-05-03T10:05:48;101545.81;;;13.58;60.23
25156;BME280;21913;52.456;13.634;2023-05-03T10:10:50;101548.41;;;13.58;61.01
25156;BME280;21913;52.456;13.634;2023-05-03T10:15:56;101542.34;;;13.59;61.36
25156;BME280;21913;52.456;13.634;2023-05-03T10:21:15;101535.44;;;13.59;61.81
25156;BME280;21913;52.456;13.634;2023-05-03T10:26:18;101539.75;;;13.59;62.04
25156;BME280;21913;52.456;13.634;2023-05-03T10:31:45;101539.72;;;13.57;62.15
25156;BME280;21913;52.456;13.634;2023-05-03T10:36:47;101531.06;;;13.57;62.25
25156;BME280;21913;52.456;13.634;2023-05-03T10:42:01;101519.78;;;13.58;62.54
25156;BME280;21913;52.456;13.634;2023-05-03T10:47:12;101526.72;;;13.57;62.71
25156;BME280;21913;52.456;13.634;2023-05-03T10:57:42;101515.44;;;13.55;63.00
25156;BME280;21913;52.456;13.634;2023-05-03T11:08:23;101501.56;;;13.55;63.42
25156;BME280;21913;52.456;13.634;2023-05-03T11:13:25;101495.50;;;13.54;63.64
25156;BME280;21913;52.456;13.634;2023-05-03T11:18:27;101485.09;;;13.54;63.82
25156;BME280;21913;52.456;13.634;2023-05-03T11:23:28;101484.22;;;13.54;63.98
25156;BME280;21913;52.456;13.634;2023-05-03T11:28:30;101478.13;;;13.53;64.04
25156;BME280;21913;52.456;13.634;2023-05-03T11:33:32;101476.41;;;13.52;64.24
25156;BME280;21913;52.456;13.634;2023-05-03T11:38:36;101474.66;;;13.53;64.29
25156;BME280;21913;52.456;13.634;2023-05-03T11:43:45;101478.13;;;13.53;64.38
25156;BME280;21913;52.456;13.634;2023-05-03T11:48:48;101469.47;;;13.53;64.42
25156;BME280;21913;52.456;13.634;2023-05-03T11:53:50;101470.31;;;13.52;64.67
25156;BME280;21913;52.456;13.634;2023-05-03T11:58:56;101472.06;;;13.51;64.68
25156;BME280;21913;52.456;13.634;2023-05-03T12:03:59;101472.06;;;13.51;64.75
25156;BME280;21913;52.456;13.634;2023-05-03T12:09:02;101470.31;;;13.52;64.96
25156;BME280;21913;52.456;13.634;2023-05-03T12:14:04;101463.38;;;13.51;65.00
25156;BME280;21913;52.456;13.634;2023-05-03T12:19:06;101458.19;;;13.51;65.05
25156;BME280;21913;52.456;13.634;2023-05-03T12:24:08;101453.00;;;13.51;65.11
25156;BME280;21913;52.456;13.634;2023-05-03T12:29:11;101449.50;;;13.49;65.32
25156;BME280;21913;52.456;13.634;2023-05-03T12:34:12;101449.50;;;13.49;65.16
25156;BME280;21913;52.456;13.634;2023-05-03T12:39:31;101444.31;;;13.49;65.41
25156;BME280;21913;52.456;13.634;2023-05-03T12:44:33;101452.13;;;13.50;65.40
25156;BME280;21913;52.456;13.634;2023-05-03T12:49:35;101433.91;;;13.49;65.41
25156;BME280;21913;52.456;13.634;2023-05-03T12:54:38;101426.94;;;13.48;65.53
25156;BME280;21913;52.456;13.634;2023-05-03T12:59:42;101432.13;;;13.48;65.55
25156;BME280;21913;52.456;13.634;2023-05-03T13:04:43;101431.31;;;13.49;65.66
25156;BME280;21913;52.456;13.634;2023-05-03T13:09:56;101433.00;;;13.48;65.72
25156;BME280;21913;52.456;13.634;2023-05-03T13:15:01;101413.94;;;13.48;65.76
25156;BME280;21913;52.456;13.634;2023-05-03T13:20:03;101405.31;;;13.49;65.80
25156;BME280;21913;52.456;13.634;2023-05-03T13:25:05;101407.00;;;13.48;65.90
25156;BME280;21913;52.456;13.634;2023-05-03T13:30:07;101390.53;;;13.48;65.92
25156;BME280;21913;52.456;13.634;2023-05-03T13:35:09;101387.94;;;13.48;65.92
25156;BME280;21913;52.456;13.634;2023-05-03T13:40:11;101378.41;;;13.48;66.00
25156;BME280;21913;52.456;13.634;2023-05-03T13:45:12;101375.81;;;13.48;66.07
25156;BME280;21913;52.456;13.634;2023-05-03T13:50:14;101366.28;;;13.47;65.97
25156;BME280;21913;52.456;13.634;2023-05-03T13:55:15;101357.59;;;13.47;65.96
25156;BME280;21913;52.456;13.634;2023-05-03T14:00:17;101355.88;;;13.47;65.93
25156;BME280;21913;52.456;13.634;2023-05-03T14:05:19;101341.13;;;13.48;66.19
25156;BME280;21913;52.456;13.634;2023-05-03T14:10:20;101334.19;;;13.47;66.12
25156;BME280;21913;52.456;13.634;2023-05-03T14:15:22;101319.47;;;13.47;66.12
25156;BME280;21913;52.456;13.634;2023-05-03T14:20:23;101311.66;;;13.47;66.31
25156;BME280;21913;52.456;13.634;2023-05-03T14:25:26;101312.53;;;13.48;66.17
25156;BME280;21913;52.456;13.634;2023-05-03T14:30:27;101308.19;;;13.47;66.17
25156;BME280;21913;52.456;13.634;2023-05-03T14:35:29;101309.06;;;13.47;66.32
25156;BME280;21913;52.456;13.634;2023-05-03T14:40:30;101296.94;;;13.48;66.42
25156;BME280;21913;52.456;13.634;2023-05-03T14:45:32;101290.00;;;13.47;65.53
25156;BME280;21913;52.456;13.634;2023-05-03T14:50:34;101284.81;;;13.47;61.11
25156;BME280;21913;52.456;13.634;2023-05-03T14:55:35;101283.94;;;13.48;61.05
25156;BME280;21913;52.456;13.634;2023-05-03T15:00:37;101266.66;;;13.50;61.45
25156;BME280;21913;52.456;13.634;2023-05-03T15:05:47;101268.38;;;13.51;61.90
25156;BME280;21913;52.456;13.634;2023-05-03T15:10:49;101263.19;;;13.49;62.42
25156;BME280;21913;52.456;13.634;2023-05-03T15:15:50;101264.91;;;13.50;63.07
25156;BME280;21913;52.456;13.634;2023-05-03T15:20:52;101270.09;;;13.50;63.35
25156;BME280;21913;52.456;13.634;2023-05-03T15:25:53;101254.50;;;13.50;63.70
25156;BME280;21913;52.456;13.634;2023-05-03T15:30:55;101252.78;;;13.49;64.03
25156;BME280;21913;52.456;13.634;2023-05-03T15:35:56;101259.72;;;13.50;64.32
25156;BME280;21913;52.456;13.634;2023-05-03T15:40:58;101264.00;;;13.48;64.40
25156;BME280;21913;52.456;13.634;2023-05-03T15:46:00;101259.72;;;13.50;64.66
25156;BME280;21913;52.456;13.634;2023-05-03T15:51:02;101253.59;;;13.48;64.69
25156;BME280;21913;52.456;13.634;2023-05-03T15:56:03;101251.00;;;13.48;64.94
25156;BME280;21913;52.456;13.634;2023-05-03T16:01:05;101251.00;;;13.48;64.97
25156;BME280;21913;52.456;13.634;2023-05-03T16:06:07;101251.00;;;13.48;65.07
25156;BME280;21913;52.456;13.634;2023-05-03T16:11:09;101243.22;;;13.48;65.25
25156;BME280;21913;52.456;13.634;2023-05-03T16:16:10;101242.38;;;13.49;65.26
25156;BME280;21913;52.456;13.634;2023-05-03T16:21:12;101238.88;;;13.47;65.25
25156;BME280;21913;52.456;13.634;2023-05-03T16:26:13;101240.59;;;13.48;65.36
25156;BME280;21913;52.456;13.634;2023-05-03T16:31:15;101241.50;;;13.49;65.40
25156;BME280;21913;52.456;13.634;2023-05-03T16:36:16;101234.53;;;13.48;65.57
25156;BME280;21913;52.456;13.634;2023-05-03T16:41:18;101233.72;;;13.49;65.66
25156;BME280;21913;52.456;13.634;2023-05-03T16:46:20;101237.16;;;13.48;65.61
25156;BME280;21913;52.456;13.634;2023-05-03T16:51:21;101233.72;;;13.50;65.66
25156;BME280;21913;52.456;13.634;2023-05-03T16:56:23;101227.59;;;13.48;65.80
25156;BME280;21913;52.456;13.634;2023-05-03T17:01:26;101229.34;;;13.48;65.84
25156;BME280;21913;52.456;13.634;2023-05-03T17:06:28;101218.94;;;13.48;65.92
25156;BME280;21913;52.456;13.634;2023-05-03T17:11:29;101220.72;;;13.49;65.89
25156;BME280;21913;52.456;13.634;2023-05-03T17:16:31;101205.06;;;13.47;66.01
25156;BME280;21913;52.456;13.634;2023-05-03T17:21:32;101212.00;;;13.47;65.94
25156;BME280;21913;52.456;13.634;2023-05-03T17:26:34;101199.00;;;13.48;66.01
25156;BME280;21913;52.456;13.634;2023-05-03T17:31:35;101201.59;;;13.47;66.02
25156;BME280;21913;52.456;13.634;2023-05-03T17:36:37;101199.88;;;13.46;66.18
25156;BME280;21913;52.456;13.634;2023-05-03T17:41:38;101205.94;;;13.48;66.22
25156;BME280;21913;52.456;13.634;2023-05-03T17:46:40;101201.59;;;13.47;66.19
25156;BME280;21913;52.456;13.634;2023-05-03T17:51:41;101202.47;;;13.47;66.28
25156;BME280;21913;52.456;13.634;2023-05-03T17:56:46;101199.00;;;13.47;66.25
25156;BME280;21913;52.456;13.634;2023-05-03T18:01:47;101201.59;;;13.47;66.25
25156;BME280;21913;52.456;13.634;2023-05-03T18:06:49;101192.06;;;13.47;66.29
25156;BME280;21913;52.456;13.634;2023-05-03T18:11:53;101190.34;;;13.46;66.39
25156;BME280;21913;52.456;13.634;2023-05-03T18:16:55;101193.81;;;13.47;66.34
25156;BME280;21913;52.456;13.634;2023-05-03T18:21:56;101199.00;;;13.45;66.15
25156;BME280;21913;52.456;13.634;2023-05-03T18:26:58;101201.59;;;13.45;65.03
25156;BME280;21913;52.456;13.634;2023-05-03T18:31:59;101188.59;;;13.45;65.08
25156;BME280;21913;52.456;13.634;2023-05-03T18:37:01;101188.59;;;13.45;65.33
25156;BME280;21913;52.456;13.634;2023-05-03T18:42:02;101197.28;;;13.46;65.58
25156;BME280;21913;52.456;13.634;2023-05-03T18:47:04;101192.94;;;13.45;65.85
25156;BME280;21913;52.456;13.634;2023-05-03T18:52:08;101193.81;;;13.45;66.01
25156;BME280;21913;52.456;13.634;2023-05-03T18:57:10;101186.88;;;13.46;66.16
25156;BME280;21913;52.456;13.634;2023-05-03T19:02:14;101192.06;;;13.44;66.21
25156;BME280;21913;52.456;13.634;2023-05-03T19:07:16;101192.94;;;13.45;66.21
25156;BME280;21913;52.456;13.634;2023-05-03T19:12:17;101186.88;;;13.44;66.35
25156;BME280;21913;52.456;13.634;2023-05-03T19:17:19;101192.06;;;13.44;66.28
25156;BME280;21913;52.456;13.634;2023-05-03T19:22:20;101189.47;;;13.44;66.36
25156;BME280;21913;52.456;13.634;2023-05-03T19:27:22;101192.06;;;13.44;66.45
25156;BME280;21913;52.456;13.634;2023-05-03T19:32:23;101199.00;;;13.45;66.47
25156;BME280;21913;52.456;13.634;2023-05-03T19:37:25;101209.41;;;13.44;66.55
25156;BME280;21913;52.456;13.634;2023-05-03T19:42:26;101200.75;;;13.43;66.56
25156;BME280;21913;52.456;13.634;2023-05-03T19:47:28;101204.22;;;13.44;66.60
25156;BME280;21913;52.456;13.634;2023-05-03T19:52:29;101201.59;;;13.44;66.71
25156;BME280;21913;52.456;13.634;2023-05-03T19:57:32;101196.41;;;13.44;66.61
25156;BME280;21913;52.456;13.634;2023-05-03T20:02:34;101198.16;;;13.43;66.69
25156;BME280;21913;52.456;13.634;2023-05-03T20:07:36;101196.38;;;13.42;66.74
25156;BME280;21913;52.456;13.634;2023-05-03T20:12:37;101193.81;;;13.44;66.73
25156;BME280;21913;52.456;13.634;2023-05-03T20:17:39;101195.53;;;13.43;66.84
25156;BME280;21913;52.456;13.634;2023-05-03T20:22:41;101192.94;;;13.43;66.88
25156;BME280;21913;52.456;13.634;2023-05-03T20:27:43;101190.34;;;13.43;66.82
25156;BME280;21913;52.456;13.634;2023-05-03T20:32:45;101193.81;;;13.44;66.77
25156;BME280;21913;52.456;13.634;2023-05-03T20:37:46;101195.53;;;13.43;66.78
25156;BME280;21913;52.456;13.634;2023-05-03T20:42:48;101192.94;;;13.43;66.98
25156;BME280;21913;52.456;13.634;2023-05-03T20:47:49;101192.03;;;13.42;66.91
25156;BME280;21913;52.456;13.634;2023-05-03T20:52:51;101197.25;;;13.42;66.85
25156;BME280;21913;52.456;13.634;2023-05-03T20:57:52;101192.94;;;13.43;66.88
25156;BME280;21913;52.456;13.634;2023-05-03T21:02:54;101193.78;;;13.42;66.94
25156;BME280;21913;52.456;13.634;2023-05-03T21:07:55;101191.19;;;13.42;66.95
25156;BME280;21913;52.456;13.634;2023-05-03T21:12:57;101189.44;;;13.42;67.00
25156;BME280;21913;52.456;13.634;2023-05-03T21:17:58;101181.63;;;13.41;67.02
25156;BME280;21913;52.456;13.634;2023-05-03T21:23:00;101185.97;;;13.42;66.92
25156;BME280;21913;52.456;13.634;2023-05-03T21:28:01;101175.56;;;13.42;66.94
25156;BME280;21913;52.456;13.634;2023-05-03T21:33:03;101182.53;;;13.43;66.96
25156;BME280;21913;52.456;13.634;2023-05-03T21:38:04;101177.31;;;13.41;66.99
25156;BME280;21913;52.456;13.634;2023-05-03T21:43:06;101174.72;;;13.41;67.07
25156;BME280;21913;52.456;13.634;2023-05-03T21:48:07;101173.84;;;13.41;66.89
25156;BME280;21913;52.456;13.634;2023-05-03T21:53:09;101166.91;;;13.41;67.00
25156;BME280;21913;52.456;13.634;2023-05-03T21:58:11;101167.78;;;13.40;67.08
25156;BME280;21913;52.456;13.634;2023-05-03T22:03:12;101166.91;;;13.41;67.04
25156;BME280;21913;52.456;13.634;2023-05-03T22:08:14;101160.84;;;13.41;66.92
25156;BME280;21913;52.456;13.634;2023-05-03T22:13:15;101162.59;;;13.40;66.97
25156;BME280;21913;52.456;13.634;2023-05-03T22:18:17;101154.78;;;13.40;66.99
25156;BME280;21913;52.456;13.634;2023-05-03T22:23:18;101160.84;;;13.41;66.86
25156;BME280;21913;52.456;13.634;2023-05-03T22:28:20;101152.19;;;13.40;66.93
25156;BME280;21913;52.456;13.634;2023-05-03T22:33:21;101151.31;;;13.40;66.92
25156;BME280;21913;52.456;13.634;2023-05-03T22:38:23;101145.25;;;13.41;66.97
25156;BME280;21913;52.456;13.634;2023-05-03T22:43:24;101145.25;;;13.41;66.90
25156;BME280;21913;52.456;13.634;2023-05-03T22:48:26;101140.91;;;13.40;66.98
25156;BME280;21913;52.456;13.634;2023-05-03T22:53:27;101144.38;;;13.40;67.01
25156;BME280;21913;52.456;13.634;2023-05-03T22:58:29;101140.06;;;13.39;67.09
25156;BME280;21913;52.456;13.634;2023-05-03T23:03:30;101132.25;;;13.39;66.96
25156;BME280;21913;52.456;13.634;2023-05-03T23:08:32;101131.38;;;13.40;66.89
25156;BME280;21913;52.456;13.634;2023-05-03T23:13:33;101127.06;;;13.39;66.89
25156;BME280;21913;52.456;13.634;2023-05-03T23:18:35;101125.31;;;13.38;66.99
25156;BME280;21913;52.456;13.634;2023-05-03T23:23:37;101120.13;;;13.40;67.04
25156;BME280;21913;52.456;13.634;2023-05-03T23:28:38;101124.44;;;13.39;66.93
25156;BME280;21913;52.456;13.634;2023-05-03T23:33:40;101115.78;;;13.39;67.02
25156;BME280;21913;52.456;13.634;2023-05-03T23:38:41;101107.13;;;13.38;66.89
25156;BME280;21913;52.456;13.634;2023-05-03T23:43:42;101107.13;;;13.40;67.02
25156;BME280;21913;52.456;13.634;2023-05-03T23:48:44;101101.91;;;13.40;67.02
25156;BME280;21913;52.456;13.634;2023-05-03T23:53:45;101100.19;;;13.39;66.90
25156;BME280;21913;52.456;13.634;2023-05-03T23:58:47;101092.38;;;13.39;66.92
